createdAt,value
2024-01-30T00:01:32.572Z,9.57
2024-01-30T00:04:19.581Z,8.70
2024-01-30T00:07:06.261Z,9.80
2024-01-30T00:09:53.040Z,8.80
2024-01-30T00:12:40.771Z,8.67
2024-01-30T00:15:27.278Z,9.40
2024-01-30T00:18:13.629Z,8.77
2024-01-30T00:21:00.053Z,8.80
2024-01-30T00:23:46.553Z,11.40
2024-01-30T00:26:32.996Z,9.20
2024-01-30T00:29:22.962Z,9.13
2024-01-30T00:32:09.645Z,11.17
2024-01-30T00:34:56.292Z,10.83
2024-01-30T00:37:43.188Z,8.87
2024-01-30T00:40:29.771Z,7.90
2024-01-30T00:43:16.518Z,11.07
2024-01-30T00:46:05.317Z,11.53
2024-01-30T00:48:52.073Z,10.23
2024-01-30T00:51:38.669Z,9.33
2024-01-30T00:54:25.618Z,8.17
2024-01-30T00:57:12.107Z,10.43
2024-01-30T00:59:59.088Z,12.17
2024-01-30T01:02:47.318Z,8.57
2024-01-30T01:05:34.090Z,9.37
2024-01-30T01:08:21.363Z,9.10
2024-01-30T01:11:08.137Z,9.23
2024-01-30T01:13:54.639Z,8.53
2024-01-30T01:16:41.118Z,10.87
2024-01-30T01:19:29.099Z,11.33
2024-01-30T01:22:16.040Z,10.83
2024-01-30T01:25:03.459Z,8.83
2024-01-30T01:27:52.932Z,11.17
2024-01-30T01:30:40.357Z,9.80
2024-01-30T01:33:27.297Z,11.37
2024-01-30T01:36:15.969Z,9.33
2024-01-30T01:39:02.700Z,8.80
2024-01-30T01:41:49.226Z,10.77
2024-01-30T01:44:35.602Z,9.33
2024-01-30T01:47:22.597Z,9.63
2024-01-30T01:50:09.994Z,9.30
2024-01-30T01:52:58.453Z,11.93
2024-01-30T01:55:44.992Z,12.73
2024-01-30T01:58:32.177Z,11.03
2024-01-30T02:01:22.753Z,11.83
2024-01-30T02:04:09.901Z,12.43
2024-01-30T02:06:57.116Z,10.73
2024-01-30T02:09:45.194Z,8.33
2024-01-30T02:12:32.291Z,10.27
2024-01-30T02:15:19.246Z,8.50
2024-01-30T02:18:06.545Z,10.03
2024-01-30T02:20:56.194Z,12.23
2024-01-30T02:23:46.325Z,11.17
2024-01-30T02:26:33.407Z,9.70
2024-01-30T02:29:19.883Z,12.17
2024-01-30T02:32:08.721Z,12.17
2024-01-30T02:34:55.626Z,11.17
2024-01-30T02:37:42.167Z,10.27
2024-01-30T02:40:30.027Z,10.27
2024-01-30T02:43:18.254Z,10.90
2024-01-30T02:46:04.939Z,9.53
2024-01-30T02:48:52.001Z,10.43
2024-01-30T02:51:38.808Z,11.63
2024-01-30T02:54:25.312Z,12.63
2024-01-30T02:57:13.094Z,11.80
2024-01-30T03:00:00.043Z,11.73
2024-01-30T03:02:46.852Z,10.90
2024-01-30T03:05:33.301Z,11.27
2024-01-30T03:08:22.226Z,13.30
2024-01-30T03:11:09.072Z,10.90
2024-01-30T03:13:57.286Z,10.70
2024-01-30T03:16:43.936Z,11.40
2024-01-30T03:19:30.734Z,11.83
2024-01-30T03:22:17.529Z,12.80
2024-01-30T03:25:04.244Z,10.47
2024-01-30T03:27:51.377Z,8.80
2024-01-30T03:30:39.288Z,12.00
2024-01-30T03:33:26.097Z,13.37
2024-01-30T03:36:12.858Z,10.97
2024-01-30T03:38:59.712Z,12.17
2024-01-30T03:41:46.450Z,15.63
2024-01-30T03:44:33.228Z,19.83
2024-01-30T03:47:21.612Z,13.97
2024-01-30T03:50:08.881Z,12.83
2024-01-30T03:52:55.349Z,14.83
2024-01-30T03:55:41.924Z,11.17
2024-01-30T03:58:28.610Z,13.13
2024-01-30T04:01:16.625Z,10.03
2024-01-30T04:04:04.772Z,11.87
2024-01-30T04:06:51.610Z,11.77
2024-01-30T04:09:38.366Z,10.53
2024-01-30T04:12:24.809Z,10.33
2024-01-30T04:15:11.696Z,11.03
2024-01-30T04:18:00.190Z,15.10
2024-01-30T04:20:48.303Z,11.23
2024-01-30T04:23:35.076Z,12.07
2024-01-30T04:26:21.797Z,11.30
2024-01-30T04:29:08.275Z,11.27
2024-01-30T04:31:54.857Z,11.70
2024-01-30T04:34:41.336Z,10.10
2024-01-30T04:37:29.777Z,10.90
2024-01-30T04:40:16.306Z,11.93
2024-01-30T04:43:03.104Z,10.53
2024-01-30T04:45:51.148Z,14.13
2024-01-30T04:48:37.782Z,12.27
2024-01-30T04:51:24.266Z,13.93
2024-01-30T04:54:12.337Z,10.20
2024-01-30T04:56:58.865Z,10.70
2024-01-30T04:59:45.335Z,12.17
2024-01-30T05:02:31.893Z,13.00
2024-01-30T05:05:18.287Z,11.87
2024-01-30T05:08:05.453Z,12.77
2024-01-30T05:10:53.272Z,10.20
2024-01-30T05:13:39.846Z,10.97
2024-01-30T05:16:26.450Z,13.33
2024-01-30T05:19:12.926Z,12.23
2024-01-30T05:21:59.270Z,13.83
2024-01-30T05:24:46.088Z,12.83
2024-01-30T05:27:34.262Z,15.47
2024-01-30T05:30:21.204Z,16.57
2024-01-30T05:33:07.712Z,15.07
2024-01-30T05:35:55.539Z,18.23
2024-01-30T05:38:42.438Z,15.43
2024-01-30T05:41:28.804Z,12.53
2024-01-30T05:44:16.713Z,17.23
2024-01-30T05:47:03.605Z,14.30
2024-01-30T05:49:50.041Z,16.03
2024-01-30T05:52:36.796Z,14.00
2024-01-30T05:55:24.003Z,14.57
2024-01-30T05:58:11.024Z,17.03
2024-01-30T06:00:59.908Z,13.60
2024-01-30T06:03:46.475Z,14.93
2024-01-30T06:06:32.969Z,12.47
2024-01-30T06:09:19.345Z,15.60
2024-01-30T06:12:07.141Z,13.87
2024-01-30T06:14:55.469Z,15.93
2024-01-30T06:17:43.513Z,16.37
2024-01-30T06:20:30.244Z,17.80
2024-01-30T06:23:16.945Z,11.73
2024-01-30T06:26:03.693Z,12.97
2024-01-30T06:28:50.229Z,15.03
2024-01-30T06:31:43.454Z,12.43
2024-01-30T06:34:31.906Z,12.07
2024-01-30T06:37:18.845Z,11.03
2024-01-30T06:40:06.547Z,10.07
2024-01-30T06:42:53.388Z,12.03
2024-01-30T06:45:39.958Z,12.20
2024-01-30T06:48:26.348Z,12.10
2024-01-30T06:51:17.832Z,11.87
2024-01-30T06:54:05.629Z,14.53
2024-01-30T06:56:52.347Z,12.53
2024-01-30T06:59:42.871Z,15.13
2024-01-30T07:02:29.375Z,15.57
2024-01-30T07:05:16.593Z,15.43
2024-01-30T07:08:04.775Z,12.80
2024-01-30T07:10:51.666Z,13.70
2024-01-30T07:13:38.207Z,11.87
2024-01-30T07:16:24.928Z,12.77
2024-01-30T07:19:11.682Z,12.13
2024-01-30T07:21:58.645Z,12.30
2024-01-30T07:24:49.250Z,15.50
2024-01-30T07:27:36.284Z,12.53
2024-01-30T07:30:22.873Z,14.30
2024-01-30T07:33:09.826Z,16.30
2024-01-30T07:35:56.619Z,13.67
2024-01-30T07:38:43.264Z,13.37
2024-01-30T07:41:31.135Z,12.80
2024-01-30T07:44:18.133Z,17.93
2024-01-30T07:47:05.367Z,13.17
2024-01-30T07:49:52.529Z,16.17
2024-01-30T07:52:40.509Z,11.83
2024-01-30T07:55:29.961Z,15.03
2024-01-30T07:58:18.466Z,16.87
2024-01-30T08:01:05.477Z,14.53
2024-01-30T08:03:52.596Z,13.10
2024-01-30T08:06:41.561Z,15.87
2024-01-30T08:09:29.649Z,12.63
2024-01-30T08:12:16.086Z,13.90
2024-01-30T08:15:04.543Z,13.57
2024-01-30T08:17:51.198Z,11.80
2024-01-30T08:20:37.768Z,14.30
2024-01-30T08:23:24.371Z,11.87
2024-01-30T08:26:10.971Z,11.93
2024-01-30T08:28:57.441Z,15.87
2024-01-30T08:31:47.439Z,15.13
2024-01-30T08:34:34.535Z,13.40
2024-01-30T08:37:21.293Z,13.17
2024-01-30T08:40:09.703Z,12.63
2024-01-30T08:42:56.630Z,13.07
2024-01-30T08:45:44.116Z,14.77
2024-01-30T08:48:32.354Z,16.73
2024-01-30T08:51:18.915Z,15.57
2024-01-30T08:54:05.812Z,15.43
2024-01-30T08:56:53.551Z,19.20
2024-01-30T08:59:39.935Z,14.80
2024-01-30T09:02:26.651Z,13.87
2024-01-30T09:05:14.774Z,15.33
2024-01-30T09:08:01.681Z,14.90
2024-01-30T09:10:49.233Z,11.77
2024-01-30T09:13:36.287Z,17.23
2024-01-30T09:16:22.806Z,14.17
2024-01-30T09:19:09.569Z,15.53
2024-01-30T09:21:57.473Z,14.93
2024-01-30T09:24:43.885Z,20.20
2024-01-30T09:27:30.335Z,13.83
2024-01-30T09:30:17.297Z,14.97
2024-01-30T09:33:03.837Z,15.93
2024-01-30T09:35:50.871Z,9.80
2024-01-30T09:38:38.896Z,10.90
2024-01-30T09:41:26.756Z,11.20
2024-01-30T09:44:14.416Z,12.03
2024-01-30T09:47:04.728Z,12.27
2024-01-30T09:49:52.143Z,9.40
2024-01-30T09:52:39.348Z,8.93
2024-01-30T09:55:28.678Z,11.70
2024-01-30T09:58:15.424Z,10.17
2024-01-30T10:01:02.366Z,10.30
2024-01-30T10:03:49.592Z,10.33
2024-01-30T10:06:37.342Z,9.87
2024-01-30T10:09:24.232Z,10.70
2024-01-30T10:12:12.198Z,11.33
2024-01-30T10:14:59.452Z,9.00
2024-01-30T10:17:46.850Z,10.43
2024-01-30T10:20:33.462Z,10.47
2024-01-30T10:23:20.637Z,10.37
2024-01-30T10:26:09.554Z,11.83
2024-01-30T10:28:57.711Z,8.50
2024-01-30T10:31:44.662Z,9.30
2024-01-30T10:34:32.011Z,11.77
2024-01-30T10:37:20.210Z,9.03
2024-01-30T10:40:09.730Z,9.20
2024-01-30T10:42:58.269Z,9.73
2024-01-30T10:45:51.488Z,11.90
2024-01-30T10:48:43.944Z,10.30
2024-01-30T10:51:30.947Z,10.47
2024-01-30T10:54:19.374Z,8.83
2024-01-30T10:57:07.560Z,10.40
2024-01-30T10:59:59.146Z,10.27
2024-01-30T11:02:48.248Z,10.03
2024-01-30T11:05:36.300Z,8.83
2024-01-30T11:08:27.057Z,14.97
2024-01-30T11:11:17.218Z,9.03
2024-01-30T11:14:04.965Z,9.07
2024-01-30T11:16:51.643Z,8.63
2024-01-30T11:19:40.000Z,9.63
2024-01-30T11:22:26.943Z,9.70
2024-01-30T11:25:15.217Z,9.93
2024-01-30T11:28:02.016Z,10.90
2024-01-30T11:30:51.831Z,13.10
2024-01-30T11:33:39.259Z,9.10
2024-01-30T11:36:28.427Z,8.83
2024-01-30T11:39:17.588Z,10.10
2024-01-30T11:42:07.111Z,11.03
2024-01-30T11:44:53.753Z,11.23
2024-01-30T11:47:44.527Z,10.43
2024-01-30T11:50:31.842Z,11.53
2024-01-30T11:53:21.123Z,10.53
2024-01-30T11:56:09.753Z,10.93
2024-01-30T11:58:56.741Z,7.53
2024-01-30T12:01:43.504Z,8.83
2024-01-30T12:04:31.471Z,8.93
2024-01-30T12:07:18.617Z,13.23
2024-01-30T12:10:09.132Z,7.00
2024-01-30T12:12:56.700Z,8.60
2024-01-30T12:15:43.442Z,12.83
2024-01-30T12:18:29.887Z,8.03
2024-01-30T12:21:19.149Z,9.57
2024-01-30T12:24:08.464Z,8.20
2024-01-30T12:26:59.603Z,9.63
2024-01-30T12:29:46.004Z,7.43
2024-01-30T12:32:32.647Z,9.70
2024-01-30T12:35:20.977Z,8.67
2024-01-30T12:38:07.801Z,5.43
2024-01-30T12:40:57.196Z,8.50
2024-01-30T12:43:45.651Z,6.97
2024-01-30T12:46:32.674Z,7.13
2024-01-30T12:49:19.327Z,8.63
2024-01-30T12:52:06.872Z,8.73
2024-01-30T12:54:54.049Z,7.77
2024-01-30T12:57:40.768Z,7.90
2024-01-30T13:00:28.827Z,6.60
2024-01-30T13:03:15.675Z,8.10
2024-01-30T13:06:02.452Z,6.60
2024-01-30T13:08:49.398Z,6.97
2024-01-30T13:11:36.210Z,8.90
2024-01-30T13:14:22.988Z,14.13
2024-01-30T13:17:11.244Z,8.30
2024-01-30T13:20:04.661Z,9.67
2024-01-30T13:22:54.752Z,13.70
2024-01-30T13:25:41.246Z,7.93
2024-01-30T13:28:27.955Z,13.93
2024-01-30T13:31:14.985Z,8.13
2024-01-30T13:34:04.059Z,9.07
2024-01-30T13:36:51.789Z,8.23
2024-01-30T13:39:39.981Z,8.00
2024-01-30T13:42:26.760Z,10.20
2024-01-30T13:45:13.293Z,10.87
2024-01-30T13:48:00.314Z,9.97
2024-01-30T13:50:49.240Z,10.00
2024-01-30T13:53:35.874Z,10.13
2024-01-30T13:56:22.891Z,10.47
2024-01-30T13:59:10.177Z,12.77
2024-01-30T14:01:56.885Z,16.93
2024-01-30T14:04:43.332Z,12.77
2024-01-30T14:07:31.336Z,10.63
2024-01-30T14:10:18.545Z,10.43
2024-01-30T14:13:05.398Z,14.27
2024-01-30T14:15:52.051Z,9.40
2024-01-30T14:18:38.560Z,10.97
2024-01-30T14:21:25.847Z,12.63
2024-01-30T14:24:14.078Z,9.57
2024-01-30T14:27:00.796Z,11.90
2024-01-30T14:29:47.578Z,9.30
2024-01-30T14:32:34.230Z,11.53
2024-01-30T14:35:21.603Z,10.53
2024-01-30T14:38:08.855Z,12.37
2024-01-30T14:40:57.188Z,14.63
2024-01-30T14:43:43.866Z,13.47
2024-01-30T14:46:30.938Z,13.77
2024-01-30T14:49:18.164Z,10.17
2024-01-30T14:52:05.797Z,14.00
2024-01-30T14:54:53.427Z,14.20
2024-01-30T14:57:43.586Z,10.87
2024-01-30T15:00:30.801Z,11.87
2024-01-30T15:03:17.996Z,12.60
2024-01-30T15:06:06.096Z,10.80
2024-01-30T15:08:53.042Z,11.63
2024-01-30T15:11:39.987Z,14.33
2024-01-30T15:14:28.098Z,13.27
2024-01-30T15:17:15.022Z,10.43
2024-01-30T15:20:01.722Z,11.73
2024-01-30T15:22:48.955Z,12.97
2024-01-30T15:25:35.972Z,15.90
2024-01-30T15:28:35.860Z,14.80
2024-01-30T15:31:23.935Z,15.43
2024-01-30T15:34:10.799Z,13.83
2024-01-30T15:36:57.238Z,11.57
2024-01-30T15:39:43.692Z,11.57
2024-01-30T15:42:30.831Z,16.10
2024-01-30T15:45:17.876Z,9.13
2024-01-30T15:48:06.469Z,11.57
2024-01-30T15:50:52.928Z,11.57
2024-01-30T15:53:39.405Z,11.27
2024-01-30T15:56:26.133Z,9.87
2024-01-30T15:59:14.738Z,8.27
2024-01-30T16:02:01.420Z,11.07
2024-01-30T16:04:50.474Z,11.03
2024-01-30T16:07:37.420Z,11.97
2024-01-30T16:10:23.998Z,9.73
2024-01-30T16:13:10.824Z,10.80
2024-01-30T16:15:57.504Z,10.03
2024-01-30T16:18:44.265Z,11.30
2024-01-30T16:21:32.227Z,10.53
2024-01-30T16:24:19.717Z,9.33
2024-01-30T16:27:06.835Z,8.87
2024-01-30T16:29:53.510Z,8.93
2024-01-30T16:32:40.350Z,9.80
2024-01-30T16:35:44.449Z,10.03
2024-01-30T16:38:34.774Z,11.37
2024-01-30T16:41:21.401Z,11.30
2024-01-30T16:44:08.171Z,13.93
2024-01-30T16:46:54.812Z,11.37
2024-01-30T16:49:41.345Z,9.63
2024-01-30T16:52:28.958Z,12.50
2024-01-30T16:55:17.583Z,9.97
2024-01-30T16:58:04.049Z,10.33
2024-01-30T17:00:50.776Z,10.77
2024-01-30T17:03:49.055Z,9.47
2024-01-30T17:06:36.194Z,11.90
2024-01-30T17:09:23.696Z,9.43
2024-01-30T17:12:14.240Z,9.63
2024-01-30T17:15:01.580Z,11.53
2024-01-30T17:17:48.170Z,8.97
2024-01-30T17:20:35.102Z,13.70
2024-01-30T17:23:22.828Z,10.20
2024-01-30T17:26:09.855Z,14.13
2024-01-30T17:28:57.891Z,9.27
2024-01-30T17:31:45.770Z,12.47
2024-01-30T17:34:32.698Z,10.23
2024-01-30T17:37:19.750Z,11.60
2024-01-30T17:40:08.158Z,9.10
2024-01-30T17:42:55.151Z,9.73
2024-01-30T17:45:42.876Z,8.93
2024-01-30T17:48:29.378Z,7.67
2024-01-30T17:51:16.102Z,6.20
2024-01-30T17:54:02.782Z,9.07
2024-01-30T17:56:49.232Z,9.17
2024-01-30T17:59:35.880Z,5.77
2024-01-30T18:02:23.834Z,5.27
2024-01-30T18:05:13.350Z,4.83
2024-01-30T18:07:59.925Z,5.17
2024-01-30T18:10:46.420Z,2.90
2024-01-30T18:13:32.949Z,4.03
2024-01-30T18:16:19.517Z,4.90
2024-01-30T18:19:08.133Z,3.60
2024-01-30T18:21:55.138Z,3.67
2024-01-30T18:24:42.398Z,2.67
2024-01-30T18:27:28.881Z,3.00
2024-01-30T18:30:15.736Z,7.53
2024-01-30T18:33:04.006Z,6.43
2024-01-30T18:35:52.136Z,4.10
2024-01-30T18:38:38.947Z,3.20
2024-01-30T18:41:25.365Z,3.77
2024-01-30T18:44:11.953Z,5.07
2024-01-30T18:46:58.562Z,11.33
2024-01-30T18:49:45.154Z,4.13
2024-01-30T18:52:33.553Z,4.57
2024-01-30T18:55:21.827Z,2.70
2024-01-30T18:58:08.862Z,2.50
2024-01-30T19:00:55.533Z,3.20
2024-01-30T19:03:42.498Z,3.20
2024-01-30T19:06:29.025Z,3.17
2024-01-30T19:09:18.353Z,2.57
2024-01-30T19:12:05.492Z,2.77
2024-01-30T19:14:53.003Z,3.83
2024-01-30T19:17:39.732Z,3.00
2024-01-30T19:20:26.047Z,1.83
2024-01-30T19:23:12.741Z,2.83
2024-01-30T19:26:00.616Z,4.37
2024-01-30T19:28:50.355Z,3.47
2024-01-30T19:31:37.254Z,4.00
2024-01-30T19:34:24.169Z,5.03
2024-01-30T19:37:11.056Z,3.23
2024-01-30T19:39:57.466Z,4.43
2024-01-30T19:42:45.461Z,5.50
2024-01-30T19:45:32.030Z,2.80
2024-01-30T19:48:18.488Z,5.90
2024-01-30T19:51:05.549Z,3.47
2024-01-30T19:53:52.178Z,7.37
2024-01-30T19:56:38.555Z,3.37
2024-01-30T19:59:26.940Z,2.77
2024-01-30T20:02:16.915Z,2.73
2024-01-30T20:05:03.746Z,6.63
2024-01-30T20:07:50.779Z,4.93
2024-01-30T20:10:37.848Z,3.03
2024-01-30T20:13:26.835Z,4.03
2024-01-30T20:16:15.883Z,3.50
2024-01-30T20:19:02.617Z,4.17
2024-01-30T20:21:49.846Z,4.60
2024-01-30T20:24:36.490Z,4.47
2024-01-30T20:27:23.201Z,3.20
2024-01-30T20:30:11.996Z,4.33
2024-01-30T20:33:00.627Z,4.07
2024-01-30T20:35:47.328Z,4.27
2024-01-30T20:38:34.046Z,3.83
2024-01-30T20:41:20.522Z,4.30
2024-01-30T20:44:07.161Z,6.40
2024-01-30T20:46:54.188Z,6.27
2024-01-30T20:49:42.453Z,4.93
2024-01-30T20:52:28.894Z,5.50
2024-01-30T20:55:15.599Z,5.13
2024-01-30T20:58:02.464Z,7.27
2024-01-30T21:00:49.195Z,4.90
2024-01-30T21:03:35.606Z,6.87
2024-01-30T21:06:23.517Z,10.43
2024-01-30T21:09:10.462Z,6.87
2024-01-30T21:11:57.841Z,8.03
2024-01-30T21:14:44.532Z,6.27
2024-01-30T21:17:31.283Z,6.10
2024-01-30T21:20:18.235Z,6.33
2024-01-30T21:23:06.360Z,4.97
2024-01-30T21:25:53.325Z,6.07
2024-01-30T21:28:40.547Z,7.23
2024-01-30T21:31:27.859Z,6.03
2024-01-30T21:34:15.172Z,5.43
2024-01-30T21:37:02.270Z,5.03
2024-01-30T21:39:50.728Z,6.33
2024-01-30T21:42:39.104Z,7.33
2024-01-30T21:45:26.252Z,6.83
2024-01-30T21:48:13.294Z,6.70
2024-01-30T21:50:59.885Z,6.40
2024-01-30T21:53:46.823Z,3.57
2024-01-30T21:56:35.167Z,6.07
2024-01-30T21:59:22.236Z,6.57
2024-01-30T22:02:09.098Z,4.50
2024-01-30T22:04:56.169Z,4.23
2024-01-30T22:07:43.026Z,4.90
2024-01-30T22:10:30.097Z,3.63
2024-01-30T22:13:18.194Z,4.30
2024-01-30T22:16:05.209Z,3.67
2024-01-30T22:18:51.566Z,2.90
2024-01-30T22:21:38.204Z,2.60
2024-01-30T22:24:24.872Z,5.83
2024-01-30T22:27:11.694Z,3.43
2024-01-30T22:29:59.645Z,5.13
2024-01-30T22:32:46.335Z,3.83
2024-01-30T22:35:32.913Z,3.80
2024-01-30T22:38:21.136Z,4.17
2024-01-30T22:41:07.968Z,3.30
2024-01-30T22:43:54.785Z,3.07
2024-01-30T22:46:42.520Z,6.33
2024-01-30T22:49:37.300Z,3.13
2024-01-30T22:52:32.745Z,3.47
2024-01-30T22:55:19.516Z,5.13
2024-01-30T22:58:06.262Z,4.67
2024-01-30T23:00:53.200Z,3.73
2024-01-30T23:03:41.555Z,6.77
2024-01-30T23:06:28.056Z,3.77
2024-01-30T23:09:17.662Z,5.43
2024-01-30T23:12:04.178Z,4.43
2024-01-30T23:14:50.827Z,6.23
2024-01-30T23:17:38.798Z,4.20
2024-01-30T23:20:27.140Z,3.53
2024-01-30T23:23:13.727Z,4.23
2024-01-30T23:26:00.369Z,2.93
2024-01-30T23:28:47.376Z,2.83
2024-01-30T23:31:33.784Z,3.73
2024-01-30T23:34:20.202Z,4.50
2024-01-30T23:37:08.785Z,7.57
2024-01-30T23:39:55.268Z,5.03
2024-01-30T23:42:41.844Z,4.47
2024-01-30T23:45:28.335Z,3.63
2024-01-30T23:48:15.129Z,3.13
2024-01-30T23:51:01.646Z,2.93
2024-01-30T23:53:49.585Z,4.60
2024-01-30T23:56:40.307Z,3.03
2024-01-30T23:59:27.190Z,2.80
